SWR1886 LSZH-LROP
Flight info
| Callsign | SWR1886 |
|---|---|
| Flight time | 1h 55m |
| Altitude | 29000 |
| Route | DEGES Z2 UMVEG/N0447F350 DCT DIMLO DCT INVED DCT LAMIT DCT TOSVI |
| Aircraft | A321/M-SDE3FGHIRWY/LB1 |
Departure
| Time | 2026-05-04 09:10 |
|---|---|
| Airport | Zürich Airport (LSZH) |
Arrival
| Time | 2026-05-04 11:05 |
|---|---|
| Airport | Bucharest Henri Coandă International Airport (LROP) |
| Time | Latitude | Longitude | Altitude | Speed | Heading |
|---|---|---|---|---|---|
| 2026-05-04 08:37 | 47.45188 | 8.55751 | 1407 ft | 0 kts | 186° |
| 2026-05-04 08:57 | 47.45262 | 8.55708 | 1409 ft | 4 kts | 115° |
| 2026-05-04 09:01 | 47.45198 | 8.55605 | 1410 ft | 0 kts | 335° |
| 2026-05-04 09:01 | 47.45199 | 8.55604 | 1410 ft | 1 kts | 335° |
| 2026-05-04 09:01 | 47.45217 | 8.55592 | 1413 ft | 7 kts | 335° |
| 2026-05-04 09:02 | 47.45288 | 8.55524 | 1408 ft | 18 kts | 317° |
| 2026-05-04 09:02 | 47.45380 | 8.55385 | 1408 ft | 18 kts | 328° |
| 2026-05-04 09:02 | 47.45494 | 8.55306 | 1401 ft | 18 kts | 335° |
| 2026-05-04 09:02 | 47.45609 | 8.55229 | 1406 ft | 18 kts | 333° |
| 2026-05-04 09:03 | 47.45690 | 8.55170 | 1402 ft | 6 kts | 334° |
| 2026-05-04 09:03 | 47.45691 | 8.55169 | 1403 ft | 0 kts | 334° |
| 2026-05-04 09:03 | 47.45709 | 8.55156 | 1400 ft | 8 kts | 334° |
| 2026-05-04 09:03 | 47.45795 | 8.55096 | 1401 ft | 19 kts | 336° |
| 2026-05-04 09:04 | 47.45947 | 8.54991 | 1395 ft | 28 kts | 334° |
| 2026-05-04 09:04 | 47.46124 | 8.54869 | 1386 ft | 28 kts | 335° |
| 2026-05-04 09:04 | 47.46299 | 8.54748 | 1383 ft | 28 kts | 335° |
| 2026-05-04 09:04 | 47.46472 | 8.54628 | 1384 ft | 26 kts | 336° |
| 2026-05-04 09:05 | 47.46632 | 8.54521 | 1385 ft | 25 kts | 326° |
| 2026-05-04 09:05 | 47.46790 | 8.54420 | 1382 ft | 25 kts | 341° |
| 2026-05-04 09:05 | 47.46946 | 8.54319 | 1383 ft | 23 kts | 334° |
| 2026-05-04 09:05 | 47.47088 | 8.54220 | 1382 ft | 22 kts | 335° |
| 2026-05-04 09:06 | 47.47217 | 8.54132 | 1385 ft | 20 kts | 334° |
| 2026-05-04 09:07 | 47.47611 | 8.53792 | 1401 ft | 0 kts | 274° |
| 2026-05-04 09:08 | 47.47611 | 8.53783 | 1404 ft | 4 kts | 272° |
| 2026-05-04 09:08 | 47.47594 | 8.53701 | 1406 ft | 13 kts | 246° |
| 2026-05-04 09:08 | 47.47541 | 8.53619 | 1402 ft | 12 kts | 172° |
| 2026-05-04 09:09 | 47.47520 | 8.53631 | 1404 ft | 0 kts | 155° |
| 2026-05-04 09:09 | 47.47485 | 8.53655 | 1398 ft | 30 kts | 155° |
| 2026-05-04 09:10 | 47.47062 | 8.53945 | 1383 ft | 100 kts | 155° |
| 2026-05-04 09:10 | 47.46260 | 8.54499 | 1384 ft | 151 kts | 155° |
| 2026-05-04 09:10 | 47.45193 | 8.55235 | 1531 ft | 178 kts | 155° |
| 2026-05-04 09:10 | 47.44085 | 8.55989 | 2230 ft | 173 kts | 154° |
| 2026-05-04 09:11 | 47.43422 | 8.56649 | 2611 ft | 176 kts | 130° |
| 2026-05-04 09:11 | 47.43059 | 8.58306 | 3145 ft | 175 kts | 81° |
| 2026-05-04 09:11 | 47.43600 | 8.59954 | 3385 ft | 188 kts | 42° |
| 2026-05-04 09:11 | 47.44640 | 8.61272 | 3536 ft | 207 kts | 40° |
| 2026-05-04 09:12 | 47.45710 | 8.62781 | 3846 ft | 218 kts | 51° |
| 2026-05-04 09:12 | 47.46261 | 8.64882 | 4279 ft | 228 kts | 86° |
| 2026-05-04 09:14 | 47.46550 | 8.83290 | 8851 ft | 281 kts | 103° |
| 2026-05-04 09:14 | 47.46163 | 8.86140 | 9565 ft | 285 kts | 104° |
| 2026-05-04 09:14 | 47.45760 | 8.89034 | 10243 ft | 290 kts | 105° |
| 2026-05-04 09:14 | 47.45328 | 8.92057 | 10478 ft | 313 kts | 106° |
| 2026-05-04 09:15 | 47.44855 | 8.95316 | 10669 ft | 335 kts | 105° |
| 2026-05-04 09:15 | 47.44352 | 8.98785 | 10849 ft | 355 kts | 105° |
| 2026-05-04 09:15 | 47.43831 | 9.02391 | 11347 ft | 363 kts | 104° |
| 2026-05-04 09:15 | 47.43301 | 9.06075 | 11934 ft | 368 kts | 105° |
| 2026-05-04 09:17 | 47.43861 | 9.37307 | 16793 ft | 405 kts | 80° |
| 2026-05-04 09:18 | 47.44474 | 9.41384 | 17353 ft | 408 kts | 80° |
| 2026-05-04 09:18 | 47.45090 | 9.45485 | 17910 ft | 410 kts | 80° |
| 2026-05-04 09:18 | 47.45707 | 9.49616 | 18412 ft | 414 kts | 80° |
| 2026-05-04 09:18 | 47.46330 | 9.53784 | 18850 ft | 417 kts | 80° |
| 2026-05-04 09:19 | 47.46920 | 9.57983 | 19292 ft | 418 kts | 84° |
| 2026-05-04 09:19 | 47.47126 | 9.62266 | 19749 ft | 418 kts | 94° |
| 2026-05-04 09:19 | 47.46929 | 9.66557 | 20182 ft | 420 kts | 97° |
| 2026-05-04 09:19 | 47.46686 | 9.70867 | 20619 ft | 422 kts | 97° |
| 2026-05-04 09:20 | 47.46443 | 9.75208 | 21044 ft | 425 kts | 97° |
| 2026-05-04 09:20 | 47.46201 | 9.79575 | 21476 ft | 428 kts | 97° |
| 2026-05-04 09:20 | 47.45960 | 9.83982 | 21898 ft | 432 kts | 97° |
| 2026-05-04 09:20 | 47.45718 | 9.88420 | 22332 ft | 435 kts | 97° |
| 2026-05-04 09:21 | 47.45470 | 9.92885 | 22762 ft | 438 kts | 97° |
| 2026-05-04 09:21 | 47.45214 | 9.97380 | 23211 ft | 440 kts | 97° |
| 2026-05-04 09:21 | 47.44957 | 10.01905 | 23594 ft | 444 kts | 97° |
| 2026-05-04 09:21 | 47.44697 | 10.06461 | 23951 ft | 446 kts | 97° |
| 2026-05-04 09:22 | 47.44431 | 10.11040 | 24284 ft | 449 kts | 97° |
| 2026-05-04 09:22 | 47.44162 | 10.15642 | 24609 ft | 451 kts | 97° |
| 2026-05-04 09:22 | 47.44059 | 10.17298 | 24704 ft | 453 kts | 98° |
| 2026-05-04 09:22 | 47.43515 | 10.21878 | 25026 ft | 453 kts | 103° |
| 2026-05-04 09:23 | 47.42892 | 10.26455 | 25350 ft | 455 kts | 103° |
| 2026-05-04 09:23 | 47.42274 | 10.31053 | 25677 ft | 458 kts | 103° |
| 2026-05-04 09:23 | 47.41657 | 10.35675 | 26002 ft | 460 kts | 103° |
| 2026-05-04 09:23 | 47.41035 | 10.40321 | 26331 ft | 463 kts | 103° |
| 2026-05-04 09:25 | 47.36482 | 10.73431 | 28447 ft | 478 kts | 103° |
| 2026-05-04 09:25 | 47.35810 | 10.78238 | 28743 ft | 480 kts | 103° |
| 2026-05-04 09:26 | 47.35133 | 10.83073 | 29116 ft | 481 kts | 103° |
| 2026-05-04 09:26 | 47.34457 | 10.87896 | 29508 ft | 480 kts | 103° |
| 2026-05-04 09:26 | 47.33779 | 10.92712 | 29903 ft | 480 kts | 103° |
| 2026-05-04 09:26 | 47.33099 | 10.97526 | 30251 ft | 480 kts | 103° |
| 2026-05-04 09:27 | 47.32417 | 11.02333 | 30576 ft | 479 kts | 103° |
| 2026-05-04 09:27 | 47.31734 | 11.07134 | 30917 ft | 478 kts | 104° |
| 2026-05-04 09:27 | 47.31048 | 11.11927 | 31268 ft | 478 kts | 104° |
| 2026-05-04 09:27 | 47.30360 | 11.16711 | 31626 ft | 477 kts | 104° |
| 2026-05-04 09:28 | 47.29672 | 11.21484 | 31974 ft | 476 kts | 104° |
| 2026-05-04 09:28 | 47.28981 | 11.26259 | 32322 ft | 476 kts | 104° |
| 2026-05-04 09:28 | 47.28290 | 11.31019 | 32673 ft | 475 kts | 104° |
| 2026-05-04 09:28 | 47.27597 | 11.35774 | 32992 ft | 474 kts | 104° |
| 2026-05-04 09:29 | 47.26909 | 11.40516 | 33342 ft | 474 kts | 104° |
| 2026-05-04 09:29 | 47.26220 | 11.45258 | 33685 ft | 473 kts | 104° |
| 2026-05-04 09:29 | 47.25531 | 11.49988 | 34021 ft | 472 kts | 104° |
| 2026-05-04 09:29 | 47.24887 | 11.54731 | 34325 ft | 472 kts | 102° |
| 2026-05-04 09:30 | 47.24333 | 11.59488 | 34622 ft | 472 kts | 101° |
| 2026-05-04 09:30 | 47.23837 | 11.64246 | 34902 ft | 471 kts | 100° |
| 2026-05-04 09:30 | 47.23364 | 11.69013 | 35030 ft | 470 kts | 100° |
| 2026-05-04 09:30 | 47.22892 | 11.73751 | 35053 ft | 468 kts | 100° |
| 2026-05-04 09:31 | 47.21906 | 11.83199 | 35064 ft | 466 kts | 101° |
| 2026-05-04 09:31 | 47.20864 | 11.92596 | 35067 ft | 466 kts | 100° |
| 2026-05-04 09:32 | 47.19921 | 12.02018 | 35069 ft | 466 kts | 99° |
| 2026-05-04 09:34 | 47.16260 | 12.39680 | 35074 ft | 465 kts | 99° |
| 2026-05-04 09:34 | 47.15308 | 12.49061 | 35077 ft | 464 kts | 99° |
| 2026-05-04 09:35 | 47.14345 | 12.58437 | 35084 ft | 464 kts | 99° |
| 2026-05-04 09:35 | 47.13379 | 12.67802 | 35082 ft | 464 kts | 99° |
| 2026-05-04 09:37 | 47.09475 | 13.05174 | 35077 ft | 462 kts | 99° |
| 2026-05-04 09:38 | 47.08475 | 13.14494 | 35076 ft | 463 kts | 99° |
| 2026-05-04 09:38 | 47.07471 | 13.23813 | 35080 ft | 463 kts | 99° |
| 2026-05-04 09:39 | 47.06460 | 13.33134 | 35079 ft | 463 kts | 99° |
| 2026-05-04 09:39 | 47.05438 | 13.42454 | 35084 ft | 463 kts | 99° |
| 2026-05-04 09:40 | 47.04415 | 13.51774 | 35087 ft | 463 kts | 99° |
| 2026-05-04 09:40 | 47.03387 | 13.61083 | 35090 ft | 463 kts | 99° |
| 2026-05-04 09:42 | 46.99156 | 13.98337 | 35096 ft | 463 kts | 99° |
| 2026-05-04 09:43 | 46.98082 | 14.07651 | 35095 ft | 464 kts | 99° |
| 2026-05-04 09:43 | 46.97001 | 14.16945 | 35098 ft | 464 kts | 100° |
| 2026-05-04 09:44 | 46.95910 | 14.26258 | 35098 ft | 464 kts | 99° |
| 2026-05-04 09:46 | 46.91471 | 14.63501 | 35099 ft | 465 kts | 100° |
| 2026-05-04 09:46 | 46.90335 | 14.72802 | 35094 ft | 464 kts | 100° |
| 2026-05-04 09:47 | 46.89196 | 14.82098 | 35097 ft | 464 kts | 100° |
| 2026-05-04 09:49 | 46.84585 | 15.19245 | 35087 ft | 464 kts | 100° |
| 2026-05-04 09:51 | 46.80650 | 15.50095 | 35098 ft | 464 kts | 99° |
| 2026-05-04 09:51 | 46.79451 | 15.59336 | 35097 ft | 463 kts | 100° |
| 2026-05-04 09:52 | 46.78243 | 15.68566 | 35104 ft | 463 kts | 100° |
| 2026-05-04 09:52 | 46.77033 | 15.77778 | 35111 ft | 462 kts | 100° |
| 2026-05-04 09:53 | 46.75820 | 15.86985 | 35103 ft | 462 kts | 100° |
| 2026-05-04 09:53 | 46.74603 | 15.96193 | 35107 ft | 462 kts | 100° |
| 2026-05-04 09:54 | 46.73374 | 16.05380 | 35108 ft | 462 kts | 100° |
| 2026-05-04 09:54 | 46.72132 | 16.14565 | 35111 ft | 462 kts | 100° |
| 2026-05-04 09:55 | 46.70891 | 16.23738 | 35109 ft | 461 kts | 100° |
| 2026-05-04 09:55 | 46.69641 | 16.32900 | 35107 ft | 461 kts | 100° |
| 2026-05-04 09:56 | 46.68379 | 16.42046 | 35109 ft | 460 kts | 100° |
| 2026-05-04 09:56 | 46.67234 | 16.51214 | 35112 ft | 460 kts | 98° |
| 2026-05-04 09:57 | 46.66235 | 16.60399 | 35114 ft | 460 kts | 97° |
| 2026-05-04 09:57 | 46.65222 | 16.69590 | 35116 ft | 460 kts | 98° |
| 2026-05-04 09:58 | 46.64157 | 16.78763 | 35124 ft | 460 kts | 98° |
| 2026-05-04 09:58 | 46.63070 | 16.87930 | 35130 ft | 460 kts | 98° |
| 2026-05-04 10:00 | 46.58690 | 17.24584 | 35139 ft | 460 kts | 98° |
| 2026-05-04 10:04 | 46.50746 | 17.88567 | 35137 ft | 459 kts | 98° |
| 2026-05-04 10:04 | 46.49583 | 17.97677 | 35135 ft | 459 kts | 98° |
| 2026-05-04 10:05 | 46.48411 | 18.06781 | 35137 ft | 459 kts | 98° |
| 2026-05-04 10:05 | 46.47235 | 18.15880 | 35137 ft | 459 kts | 98° |
| 2026-05-04 10:06 | 46.46055 | 18.24969 | 35142 ft | 458 kts | 98° |
| 2026-05-04 10:06 | 46.44867 | 18.34044 | 35144 ft | 458 kts | 98° |
| 2026-05-04 10:08 | 46.40643 | 18.65759 | 35156 ft | 457 kts | 98° |
| 2026-05-04 10:08 | 46.39425 | 18.74802 | 35154 ft | 457 kts | 98° |
| 2026-05-04 10:09 | 46.38198 | 18.83828 | 35157 ft | 457 kts | 98° |
| 2026-05-04 10:09 | 46.36969 | 18.92840 | 35160 ft | 456 kts | 98° |
| 2026-05-04 10:10 | 46.35735 | 19.01834 | 35165 ft | 455 kts | 98° |
| 2026-05-04 10:10 | 46.34497 | 19.10807 | 35168 ft | 454 kts | 98° |
| 2026-05-04 10:11 | 46.33252 | 19.19769 | 35166 ft | 454 kts | 98° |
| 2026-05-04 10:11 | 46.32002 | 19.28714 | 35165 ft | 453 kts | 98° |
| 2026-05-04 10:12 | 46.30739 | 19.37633 | 35171 ft | 452 kts | 98° |
| 2026-05-04 10:12 | 46.29477 | 19.46539 | 35166 ft | 452 kts | 98° |
| 2026-05-04 10:13 | 46.28214 | 19.55438 | 35174 ft | 451 kts | 98° |
| 2026-05-04 10:13 | 46.26946 | 19.64315 | 35172 ft | 451 kts | 98° |
| 2026-05-04 10:14 | 46.25672 | 19.73176 | 35171 ft | 450 kts | 98° |
| 2026-05-04 10:16 | 46.20504 | 20.08490 | 35189 ft | 448 kts | 98° |
| 2026-05-04 10:16 | 46.19204 | 20.17285 | 35189 ft | 448 kts | 98° |
| 2026-05-04 10:17 | 46.17895 | 20.26068 | 35191 ft | 448 kts | 98° |
| 2026-05-04 10:19 | 46.10533 | 20.55712 | 35189 ft | 453 kts | 112° |
| 2026-05-04 10:19 | 46.09157 | 20.59792 | 35189 ft | 453 kts | 112° |
| 2026-05-04 10:19 | 46.06426 | 20.67895 | 35189 ft | 453 kts | 112° |
| 2026-05-04 10:20 | 46.03653 | 20.76092 | 35189 ft | 452 kts | 112° |
| 2026-05-04 10:20 | 46.00889 | 20.84227 | 35189 ft | 452 kts | 112° |
| 2026-05-04 10:21 | 45.98120 | 20.92346 | 35184 ft | 452 kts | 112° |
| 2026-05-04 10:21 | 45.95363 | 21.00395 | 35180 ft | 452 kts | 112° |
| 2026-05-04 10:22 | 45.91191 | 21.12530 | 35182 ft | 451 kts | 112° |
| 2026-05-04 10:23 | 45.88409 | 21.20600 | 35182 ft | 451 kts | 112° |
| 2026-05-04 10:25 | 45.77231 | 21.52734 | 35187 ft | 449 kts | 112° |
| 2026-05-04 10:25 | 45.74431 | 21.60734 | 35191 ft | 449 kts | 112° |
| 2026-05-04 10:26 | 45.71630 | 21.68719 | 35187 ft | 448 kts | 112° |
| 2026-05-04 10:26 | 45.68827 | 21.76686 | 35180 ft | 448 kts | 112° |
| 2026-05-04 10:27 | 45.66024 | 21.84621 | 35183 ft | 447 kts | 112° |
| 2026-05-04 10:27 | 45.63218 | 21.92541 | 35181 ft | 446 kts | 112° |
| 2026-05-04 10:28 | 45.60405 | 22.00445 | 35183 ft | 446 kts | 112° |
| 2026-05-04 10:28 | 45.57596 | 22.08325 | 35182 ft | 445 kts | 112° |
| 2026-05-04 10:29 | 45.54791 | 22.16194 | 35180 ft | 444 kts | 112° |
| 2026-05-04 10:29 | 45.51981 | 22.24038 | 35175 ft | 444 kts | 112° |
| 2026-05-04 10:30 | 45.49166 | 22.31860 | 35175 ft | 443 kts | 112° |
| 2026-05-04 10:30 | 45.46347 | 22.39670 | 35173 ft | 443 kts | 112° |
| 2026-05-04 10:31 | 45.43986 | 22.46200 | 35169 ft | 442 kts | 112° |
| 2026-05-04 10:32 | 45.34126 | 22.73304 | 35158 ft | 441 kts | 112° |
| 2026-05-04 10:33 | 45.31294 | 22.81034 | 35153 ft | 441 kts | 112° |
| 2026-05-04 10:33 | 45.28466 | 22.88744 | 35149 ft | 440 kts | 112° |
| 2026-05-04 10:34 | 45.25635 | 22.96429 | 35148 ft | 439 kts | 112° |
| 2026-05-04 10:34 | 45.22777 | 23.04160 | 35144 ft | 439 kts | 112° |
| 2026-05-04 10:35 | 45.19937 | 23.11814 | 35133 ft | 438 kts | 112° |
| 2026-05-04 10:35 | 45.17125 | 23.19406 | 35135 ft | 437 kts | 112° |
| 2026-05-04 10:36 | 45.14279 | 23.27080 | 35135 ft | 437 kts | 112° |
| 2026-05-04 10:36 | 45.11458 | 23.34622 | 35134 ft | 436 kts | 112° |
| 2026-05-04 10:37 | 45.09434 | 23.42553 | 35131 ft | 426 kts | 99° |
| 2026-05-04 10:37 | 45.07928 | 23.50654 | 35129 ft | 426 kts | 99° |
| 2026-05-04 10:39 | 45.03331 | 23.74845 | 34218 ft | 422 kts | 99° |
| 2026-05-04 10:39 | 45.02565 | 23.78854 | 33824 ft | 422 kts | 100° |
| 2026-05-04 10:39 | 45.01787 | 23.82936 | 32931 ft | 426 kts | 100° |
| 2026-05-04 10:40 | 45.01016 | 23.86991 | 32103 ft | 429 kts | 100° |
| 2026-05-04 10:40 | 45.00247 | 23.91019 | 31246 ft | 432 kts | 101° |
| 2026-05-04 10:40 | 44.99445 | 23.95176 | 30429 ft | 433 kts | 101° |
| 2026-05-04 10:40 | 44.98648 | 23.99299 | 29380 ft | 437 kts | 101° |
| 2026-05-04 10:41 | 44.97856 | 24.03396 | 28394 ft | 439 kts | 101° |
| 2026-05-04 10:41 | 44.97042 | 24.07579 | 27855 ft | 431 kts | 101° |
| 2026-05-04 10:41 | 44.96248 | 24.11637 | 27237 ft | 427 kts | 101° |
| 2026-05-04 10:41 | 44.95461 | 24.15659 | 26627 ft | 422 kts | 101° |
| 2026-05-04 10:42 | 44.94687 | 24.19619 | 26032 ft | 417 kts | 101° |
| 2026-05-04 10:42 | 44.93921 | 24.23543 | 25446 ft | 412 kts | 101° |
| 2026-05-04 10:42 | 44.93163 | 24.27422 | 24870 ft | 408 kts | 101° |
| 2026-05-04 10:42 | 44.92407 | 24.31265 | 24300 ft | 404 kts | 101° |
| 2026-05-04 10:43 | 44.91661 | 24.35068 | 23749 ft | 400 kts | 101° |
| 2026-05-04 10:44 | 44.86692 | 24.60139 | 20282 ft | 357 kts | 101° |
| 2026-05-04 10:45 | 44.86024 | 24.63482 | 19865 ft | 351 kts | 101° |
| 2026-05-04 10:45 | 44.85366 | 24.66774 | 19453 ft | 347 kts | 101° |
| 2026-05-04 10:45 | 44.84719 | 24.70030 | 19042 ft | 344 kts | 101° |
| 2026-05-04 10:45 | 44.84076 | 24.73263 | 18655 ft | 342 kts | 101° |
| 2026-05-04 10:46 | 44.83435 | 24.76474 | 18247 ft | 340 kts | 101° |
| 2026-05-04 10:46 | 44.82795 | 24.79663 | 17824 ft | 338 kts | 101° |
| 2026-05-04 10:46 | 44.82156 | 24.82842 | 17431 ft | 337 kts | 101° |
| 2026-05-04 10:46 | 44.81516 | 24.86008 | 17019 ft | 335 kts | 101° |
| 2026-05-04 10:47 | 44.80878 | 24.89156 | 16624 ft | 334 kts | 101° |
| 2026-05-04 10:47 | 44.80241 | 24.92301 | 16206 ft | 333 kts | 102° |
| 2026-05-04 10:47 | 44.79605 | 24.95433 | 15786 ft | 332 kts | 102° |
| 2026-05-04 10:47 | 44.78970 | 24.98556 | 15363 ft | 331 kts | 102° |
| 2026-05-04 10:49 | 44.74766 | 25.19616 | 13276 ft | 311 kts | 99° |
| 2026-05-04 10:49 | 44.74322 | 25.22586 | 13000 ft | 310 kts | 98° |
| 2026-05-04 10:50 | 44.73902 | 25.25548 | 12740 ft | 309 kts | 98° |
| 2026-05-04 10:51 | 44.66038 | 25.41413 | 10460 ft | 322 kts | 160° |
| 2026-05-04 10:52 | 44.63902 | 25.42314 | 10225 ft | 316 kts | 160° |
| 2026-05-04 10:52 | 44.61828 | 25.43182 | 10087 ft | 306 kts | 160° |
| 2026-05-04 10:52 | 44.59811 | 25.44033 | 9842 ft | 300 kts | 160° |
| 2026-05-04 10:54 | 44.52359 | 25.55148 | 7345 ft | 239 kts | 81° |
| 2026-05-04 10:54 | 44.52547 | 25.57453 | 7099 ft | 237 kts | 81° |
| 2026-05-04 10:56 | 44.53667 | 25.71777 | 4820 ft | 244 kts | 82° |
| 2026-05-04 10:56 | 44.53849 | 25.74076 | 4523 ft | 227 kts | 82° |
| 2026-05-04 10:56 | 44.54017 | 25.76191 | 4243 ft | 211 kts | 82° |
| 2026-05-04 10:57 | 44.54175 | 25.78193 | 3984 ft | 204 kts | 82° |
| 2026-05-04 10:57 | 44.54332 | 25.80174 | 3746 ft | 205 kts | 82° |
| 2026-05-04 10:57 | 44.54488 | 25.82152 | 3489 ft | 202 kts | 82° |
| 2026-05-04 10:57 | 44.54639 | 25.84081 | 3250 ft | 194 kts | 82° |
| 2026-05-04 10:58 | 44.54783 | 25.85919 | 3018 ft | 187 kts | 83° |
| 2026-05-04 10:58 | 44.54922 | 25.87691 | 2811 ft | 175 kts | 83° |
| 2026-05-04 10:58 | 44.55045 | 25.89278 | 2569 ft | 153 kts | 82° |
| 2026-05-04 10:58 | 44.55156 | 25.90708 | 2390 ft | 143 kts | 82° |
| 2026-05-04 10:59 | 44.55265 | 25.92102 | 2239 ft | 146 kts | 83° |
| 2026-05-04 10:59 | 44.55374 | 25.93502 | 2023 ft | 141 kts | 81° |
| 2026-05-04 10:59 | 44.55479 | 25.94866 | 1866 ft | 140 kts | 84° |
| 2026-05-04 10:59 | 44.55584 | 25.96213 | 1695 ft | 138 kts | 83° |
| 2026-05-04 11:00 | 44.55688 | 25.97548 | 1519 ft | 138 kts | 81° |
| 2026-05-04 11:01 | 44.56420 | 26.07005 | 459 ft | 143 kts | 85° |
| 2026-05-04 11:02 | 44.56523 | 26.08381 | 326 ft | 136 kts | 85° |
| 2026-05-04 11:02 | 44.56607 | 26.09537 | 320 ft | 94 kts | 84° |
| 2026-05-04 11:05 | 44.56955 | 26.09031 | 321 ft | 26 kts | 263° |
| 2026-05-04 11:06 | 44.56936 | 26.08778 | 321 ft | 26 kts | 264° |
| 2026-05-04 11:06 | 44.56913 | 26.08568 | 321 ft | 19 kts | 252° |
| 2026-05-04 11:06 | 44.56907 | 26.08426 | 320 ft | 11 kts | 300° |
| 2026-05-04 11:06 | 44.56950 | 26.08345 | 320 ft | 10 kts | 285° |
| 2026-05-04 11:08 | 44.57010 | 26.08026 | 319 ft | 1 kts | 354° |
| 2026-05-04 11:10 | 44.57017 | 26.08025 | 320 ft | 0 kts | 354° |